Time;durP1;ratioP1;P1;durP2;ratioP2;P2;SDS_P1;SDS_P2;PMS_P1;PMS_P2;Temp;Humidity;BMP_temperature;BMP_pressure;BME280_temperature;BME280_humidity;BME280_pressure;Samples;Min_cycle;Max_cycle;Signal;HPM_P1;HPM_P2
2021/08/29 00:01:57;;;;;;;3.67;2.60;;;17.30;99.90;;;;;;5091483;28;20161;-63
2021/08/29 00:04:23;;;;;;;4.03;2.58;;;17.20;99.90;;;;;;5092025;28;20107;-62
2021/08/29 00:06:49;;;;;;;2.42;2.17;;;17.20;99.90;;;;;;5092768;28;20035;-73
2021/08/29 00:09:15;;;;;;;2.13;1.90;;;17.20;99.90;;;;;;5091762;28;20024;-63
2021/08/29 00:11:41;;;;;;;4.20;2.30;;;17.10;99.90;;;;;;5091761;28;20378;-64
2021/08/29 00:14:06;;;;;;;2.90;2.15;;;17.20;99.90;;;;;;5092387;28;20040;-65
2021/08/29 00:16:32;;;;;;;2.38;1.48;;;17.20;99.90;;;;;;5093141;28;20078;-64
2021/08/29 00:18:58;;;;;;;4.47;2.35;;;17.10;99.90;;;;;;5090827;28;20074;-61
2021/08/29 00:21:23;;;;;;;3.05;2.33;;;17.00;99.90;;;;;;5091009;28;20032;-61
2021/08/29 00:23:49;;;;;;;3.25;2.17;;;17.00;99.90;;;;;;5092411;28;20040;-66
2021/08/29 00:26:15;;;;;;;1.95;1.60;;;17.00;99.90;;;;;;5092715;28;20110;-61
2021/08/29 00:28:41;;;;;;;2.25;1.90;;;17.00;99.90;;;;;;5092903;28;20134;-61
2021/08/29 00:31:06;;;;;;;1.85;1.52;;;17.00;99.90;;;;;;5090922;28;20031;-61
2021/08/29 00:33:32;;;;;;;6.00;2.00;;;17.10;99.90;;;;;;5092619;28;20489;-61
2021/08/29 00:35:58;;;;;;;2.53;2.30;;;17.10;99.90;;;;;;5091253;28;20069;-61
2021/08/29 00:38:23;;;;;;;2.38;2.00;;;17.10;99.90;;;;;;5092805;28;20024;-63
2021/08/29 00:40:50;;;;;;;2.83;2.08;;;17.00;99.90;;;;;;5091335;28;20032;-66
2021/08/29 00:43:16;;;;;;;4.32;2.08;;;17.00;99.90;;;;;;5086966;28;20118;-69
2021/08/29 00:45:43;;;;;;;2.42;2.13;;;17.00;99.90;;;;;;5090707;28;20153;-62
2021/08/29 00:48:10;;;;;;;2.75;1.95;;;17.00;99.90;;;;;;5092530;28;20694;-63
2021/08/29 00:50:37;;;;;;;2.25;2.05;;;16.90;99.90;;;;;;5093331;28;20028;-62
2021/08/29 00:53:04;;;;;;;2.40;2.17;;;16.90;99.90;;;;;;5093538;28;20150;-62
2021/08/29 00:55:30;;;;;;;2.15;1.80;;;17.00;99.90;;;;;;5091942;28;20067;-60
2021/08/29 00:57:55;;;;;;;2.88;1.98;;;17.00;99.90;;;;;;5093216;28;20055;-63
2021/08/29 01:00:21;;;;;;;4.35;1.77;;;16.90;99.90;;;;;;5093899;28;20031;-61
2021/08/29 01:02:47;;;;;;;1.80;1.70;;;16.90;99.90;;;;;;5093200;28;20138;-61
2021/08/29 01:05:18;;;;;;;3.35;1.77;;;17.00;99.90;;;;;;5092586;28;20359;-62
2021/08/29 01:08:00;;;;;;;1.65;1.55;;;17.00;99.90;;;;;;5092353;28;20024;-61
2021/08/29 01:10:51;;;;;;;;;;;16.80;99.90;;;;;;5092674;28;20386;-62
2021/08/29 01:13:24;;;;;;;1.77;1.25;;;16.70;99.90;;;;;;5088607;28;19911;-61
2021/08/29 01:15:56;;;;;;;1.60;1.30;;;16.70;99.90;;;;;;5093393;28;20035;-71
2021/08/29 01:18:24;;;;;;;1.08;0.98;;;16.60;99.90;;;;;;5093208;28;20024;-61
2021/08/29 01:20:55;;;;;;;1.92;1.13;;;16.70;99.90;;;;;;5093376;28;20034;-61
2021/08/29 01:23:22;;;;;;;1.35;1.15;;;16.70;99.90;;;;;;5093541;28;20131;-62
2021/08/29 01:25:55;;;;;;;1.40;1.30;;;16.70;99.90;;;;;;5093034;28;20086;-62
2021/08/29 01:28:26;;;;;;;1.10;0.75;;;16.60;99.90;;;;;;5091921;28;20462;-62
2021/08/29 01:30:53;;;;;;;1.08;0.80;;;16.70;99.90;;;;;;5092318;28;20035;-63
2021/08/29 01:33:19;;;;;;;2.13;1.10;;;16.70;99.90;;;;;;5091971;28;20071;-62
2021/08/29 01:35:45;;;;;;;0.95;0.80;;;16.70;99.90;;;;;;5081337;28;20051;-62
2021/08/29 01:38:11;;;;;;;1.10;0.85;;;16.70;99.90;;;;;;5073217;28;20718;-63
2021/08/29 01:40:37;;;;;;;1.63;1.02;;;16.70;99.90;;;;;;5073455;28;20473;-62
2021/08/29 01:43:04;;;;;;;1.10;0.90;;;16.80;99.90;;;;;;5071604;28;20464;-62
2021/08/29 01:45:31;;;;;;;1.25;1.05;;;16.70;99.90;;;;;;5072353;28;20115;-62
2021/08/29 01:47:58;;;;;;;1.30;1.05;;;16.70;99.90;;;;;;5070546;28;20024;-62
2021/08/29 01:50:25;;;;;;;2.00;1.50;;;16.70;99.90;;;;;;5072287;28;20038;-62
2021/08/29 01:52:51;;;;;;;1.13;1.02;;;16.70;99.90;;;;;;5072554;28;20469;-62
2021/08/29 01:55:17;;;;;;;2.83;1.25;;;16.60;99.90;;;;;;5070515;28;20042;-62
2021/08/29 01:57:43;;;;;;;2.25;1.45;;;16.60;99.90;;;;;;5070927;28;20048;-62
2021/08/29 02:00:10;;;;;;;3.47;1.40;;;16.60;99.90;;;;;;5071769;28;20402;-62
2021/08/29 02:02:35;;;;;;;2.22;1.50;;;16.70;99.90;;;;;;5072130;28;20024;-62
2021/08/29 02:05:02;;;;;;;3.05;1.73;;;16.60;99.90;;;;;;5070190;28;20141;-62
2021/08/29 02:07:38;;;;;;;2.53;1.60;;;16.60;99.90;;;;;;5069826;28;20492;-62
2021/08/29 02:10:10;;;;;;;2.15;1.38;;;16.60;99.90;;;;;;5071514;28;20024;-62
2021/08/29 02:12:49;;;;;;;1.70;1.50;;;16.60;99.90;;;;;;5072017;28;20482;-62
2021/08/29 02:15:25;;;;;;;1.85;1.73;;;16.70;99.90;;;;;;5071266;28;20048;-62
2021/08/29 02:17:52;;;;;;;2.38;1.60;;;16.70;99.90;;;;;;5071979;28;20464;-62
2021/08/29 02:20:22;;;;;;;1.90;1.45;;;16.80;99.90;;;;;;5071335;28;20120;-62
2021/08/29 02:22:48;;;;;;;2.30;1.75;;;16.70;99.90;;;;;;5071277;28;20057;-62
2021/08/29 02:25:14;;;;;;;5.15;2.22;;;16.70;99.90;;;;;;5071443;28;20450;-63
2021/08/29 02:27:41;;;;;;;1.35;1.25;;;16.70;99.90;;;;;;5071710;28;20024;-63
2021/08/29 02:30:08;;;;;;;2.83;1.55;;;16.70;99.90;;;;;;5071092;28;20029;-62
2021/08/29 02:32:37;;;;;;;1.92;1.40;;;16.80;99.90;;;;;;5071575;28;20107;-63
2021/08/29 02:35:03;;;;;;;2.42;1.50;;;16.80;99.90;;;;;;5070896;28;20040;-62
2021/08/29 02:37:30;;;;;;;2.17;1.38;;;16.90;99.90;;;;;;5071224;28;20544;-62
2021/08/29 02:39:57;;;;;;;1.60;1.50;;;16.90;99.90;;;;;;5069184;28;20032;-66
2021/08/29 02:42:26;;;;;;;1.92;1.38;;;16.80;99.90;;;;;;5071472;28;20035;-62
2021/08/29 02:44:53;;;;;;;1.02;0.82;;;16.70;99.90;;;;;;5071439;28;20024;-62
2021/08/29 02:47:19;;;;;;;2.13;1.17;;;16.80;99.90;;;;;;5070562;28;20060;-62
2021/08/29 02:49:48;;;;;;;2.17;1.20;;;16.80;99.90;;;;;;5069784;28;20024;-63
2021/08/29 02:52:16;;;;;;;1.58;1.02;;;16.90;99.90;;;;;;5070761;28;20120;-62
2021/08/29 02:54:43;;;;;;;2.30;1.50;;;16.80;99.90;;;;;;5069870;28;20033;-60
2021/08/29 02:57:12;;;;;;;2.13;0.90;;;16.70;99.90;;;;;;5070898;28;20033;-61
2021/08/29 02:59:38;;;;;;;1.48;1.02;;;16.70;99.90;;;;;;5069785;28;20115;-61
2021/08/29 03:02:06;;;;;;;2.42;0.90;;;16.70;99.90;;;;;;5070132;28;20028;-61
2021/08/29 03:04:32;;;;;;;1.38;1.23;;;16.80;99.90;;;;;;5070947;28;20028;-61
2021/08/29 03:06:58;;;;;;;1.50;1.40;;;16.80;99.90;;;;;;5070092;28;20032;-62
2021/08/29 03:09:24;;;;;;;1.58;1.25;;;16.80;99.90;;;;;;5069713;28;20461;-62
2021/08/29 03:11:50;;;;;;;1.05;0.95;;;16.70;99.90;;;;;;5071041;28;20036;-61
2021/08/29 03:14:16;;;;;;;1.05;0.80;;;16.80;99.90;;;;;;5070285;28;20064;-61
2021/08/29 03:16:42;;;;;;;1.67;1.25;;;16.70;99.90;;;;;;5070965;28;20066;-62
2021/08/29 03:19:07;;;;;;;0.63;0.63;;;16.70;99.90;;;;;;5069958;28;20029;-60
2021/08/29 03:21:33;;;;;;;1.15;0.80;;;16.60;99.90;;;;;;5069090;28;20088;-61
2021/08/29 03:23:59;;;;;;;0.90;0.70;;;16.60;99.90;;;;;;5070281;28;20123;-62
2021/08/29 03:26:25;;;;;;;1.67;0.90;;;16.60;99.90;;;;;;5070485;28;20028;-61
2021/08/29 03:28:51;;;;;;;0.73;0.70;;;16.70;99.90;;;;;;5069525;28;20469;-61
2021/08/29 03:31:17;;;;;;;2.35;0.85;;;16.70;99.90;;;;;;5070062;28;20115;-61
2021/08/29 03:33:45;;;;;;;0.98;0.80;;;16.70;99.90;;;;;;5069252;28;20074;-61
2021/08/29 03:36:18;;;;;;;0.82;0.47;;;16.70;99.90;;;;;;5068842;28;20094;-61
2021/08/29 03:38:44;;;;;;;1.23;0.63;;;16.70;99.90;;;;;;5070472;28;20386;-61
2021/08/29 03:41:11;;;;;;;1.15;0.65;;;16.70;99.90;;;;;;5070094;28;20028;-61
2021/08/29 03:43:37;;;;;;;0.88;0.38;;;16.70;99.90;;;;;;5070641;28;20060;-61
2021/08/29 03:46:03;;;;;;;0.80;0.30;;;16.70;99.90;;;;;;5070314;28;20060;-61
2021/08/29 03:48:29;;;;;;;0.50;0.50;;;16.70;99.90;;;;;;5070486;28;20390;-61
2021/08/29 03:50:56;;;;;;;0.40;0.40;;;16.60;99.90;;;;;;5070167;28;20040;-61
2021/08/29 03:53:23;;;;;;;0.85;0.80;;;16.50;99.90;;;;;;5068605;28;20551;-61
2021/08/29 03:55:49;;;;;;;0.93;0.70;;;16.50;99.90;;;;;;5070457;28;20490;-61
2021/08/29 03:58:15;;;;;;;0.85;0.40;;;16.60;99.90;;;;;;5068546;28;20029;-61
2021/08/29 04:00:41;;;;;;;0.70;0.30;;;16.60;99.90;;;;;;5069022;28;20119;-61
2021/08/29 04:03:06;;;;;;;0.20;0.20;;;16.50;99.90;;;;;;5069673;28;20121;-62
2021/08/29 04:05:34;;;;;;;0.88;0.50;;;16.40;99.90;;;;;;5068867;28;20434;-61
2021/08/29 04:08:00;;;;;;;3.45;0.57;;;16.50;99.90;;;;;;5068811;28;20488;-61
2021/08/29 04:10:27;;;;;;;0.85;0.50;;;16.40;99.90;;;;;;5070290;28;20377;-62
2021/08/29 04:12:52;;;;;;;1.55;0.60;;;16.40;99.90;;;;;;5070139;28;20193;-61
2021/08/29 04:15:20;;;;;;;1.05;0.50;;;16.40;99.90;;;;;;5069529;28;20071;-61
2021/08/29 04:17:47;;;;;;;8.32;0.77;;;16.30;99.90;;;;;;5070316;28;20034;-61
2021/08/29 04:20:14;;;;;;;3.60;0.43;;;16.30;99.90;;;;;;5069567;28;20033;-61
2021/08/29 04:22:39;;;;;;;0.93;0.57;;;16.40;99.90;;;;;;5068754;28;20139;-61
2021/08/29 04:25:06;;;;;;;1.75;0.70;;;16.40;99.90;;;;;;5069380;28;20115;-61
2021/08/29 04:27:31;;;;;;;0.80;0.80;;;16.30;99.90;;;;;;5068714;28;20406;-61
2021/08/29 04:29:57;;;;;;;1.48;0.85;;;16.30;99.90;;;;;;5068860;28;20035;-61
2021/08/29 04:32:24;;;;;;;1.02;0.60;;;16.20;99.90;;;;;;5071937;28;20039;-61
2021/08/29 04:34:50;;;;;;;1.08;0.70;;;16.20;99.90;;;;;;5071846;28;20082;-61
2021/08/29 04:37:15;;;;;;;1.77;0.73;;;16.20;99.90;;;;;;5072801;28;20028;-61
2021/08/29 04:39:41;;;;;;;4.38;0.80;;;16.20;99.90;;;;;;5073589;28;20378;-61
2021/08/29 04:42:07;;;;;;;0.60;0.60;;;16.20;99.90;;;;;;5071598;28;20028;-61
2021/08/29 04:44:33;;;;;;;1.35;0.95;;;16.30;99.90;;;;;;5073513;28;20028;-61
2021/08/29 04:46:58;;;;;;;0.80;0.60;;;16.40;99.90;;;;;;5073670;28;20074;-61
2021/08/29 04:49:24;;;;;;;0.60;0.50;;;16.40;99.90;;;;;;5072634;28;20130;-61
2021/08/29 04:51:50;;;;;;;0.75;0.68;;;16.40;99.90;;;;;;5072666;28;20402;-61
2021/08/29 04:54:15;;;;;;;0.80;0.80;;;16.40;99.90;;;;;;5071148;28;20067;-61
2021/08/29 04:56:41;;;;;;;2.35;0.75;;;16.40;99.90;;;;;;5073492;28;20059;-61
2021/08/29 04:59:06;;;;;;;0.63;0.45;;;16.30;99.90;;;;;;5072627;28;20431;-63
2021/08/29 05:01:32;;;;;;;2.83;0.82;;;16.40;99.90;;;;;;5071960;28;20028;-62
2021/08/29 05:03:58;;;;;;;3.60;0.70;;;16.30;99.90;;;;;;5072883;28;20434;-62
2021/08/29 05:06:26;;;;;;;0.85;0.60;;;16.20;99.90;;;;;;5072423;28;20028;-62
2021/08/29 05:08:52;;;;;;;2.97;1.10;;;16.30;99.90;;;;;;5073308;28;20029;-61
2021/08/29 05:11:18;;;;;;;2.88;0.40;;;16.30;99.90;;;;;;5072300;28;20033;-63
2021/08/29 05:13:43;;;;;;;0.68;0.55;;;16.30;99.90;;;;;;5071714;28;20025;-62
2021/08/29 05:16:09;;;;;;;0.60;0.60;;;16.30;99.90;;;;;;5072510;28;20024;-61
2021/08/29 05:18:35;;;;;;;1.52;0.65;;;16.30;99.90;;;;;;5071748;28;20436;-62
2021/08/29 05:21:00;;;;;;;1.00;0.85;;;16.40;99.90;;;;;;5071466;28;20432;-61
2021/08/29 05:23:26;;;;;;;1.00;0.40;;;16.40;99.90;;;;;;5072011;28;20068;-61
2021/08/29 05:25:52;;;;;;;1.05;0.60;;;16.30;99.90;;;;;;5071506;28;20064;-62
2021/08/29 05:28:19;;;;;;;2.20;0.50;;;16.30;99.90;;;;;;5072081;28;20028;-62
2021/08/29 05:30:44;;;;;;;0.82;0.40;;;16.30;99.90;;;;;;5071579;28;20051;-62
2021/08/29 05:33:10;;;;;;;1.63;0.75;;;16.40;99.90;;;;;;5072475;28;20029;-62
2021/08/29 05:35:36;;;;;;;2.25;0.60;;;16.30;99.90;;;;;;5071377;28;20501;-61
2021/08/29 05:38:01;;;;;;;2.35;0.45;;;16.40;99.90;;;;;;5071185;28;20028;-61
2021/08/29 05:40:27;;;;;;;2.95;0.70;;;16.40;99.90;;;;;;5072355;28;20355;-62
2021/08/29 05:42:52;;;;;;;0.93;0.50;;;16.20;99.90;;;;;;5072444;28;20480;-62
2021/08/29 05:45:18;;;;;;;1.10;0.40;;;16.20;99.90;;;;;;5072022;28;20029;-62
2021/08/29 05:47:44;;;;;;;0.40;0.30;;;16.20;99.90;;;;;;5072230;28;20027;-62
2021/08/29 05:50:09;;;;;;;0.43;0.40;;;16.20;99.90;;;;;;5071534;28;20460;-62
2021/08/29 05:52:35;;;;;;;0.63;0.52;;;16.30;99.90;;;;;;5072112;28;20063;-62
2021/08/29 05:55:00;;;;;;;0.60;0.50;;;16.30;99.90;;;;;;5070770;28;20024;-62
2021/08/29 05:57:26;;;;;;;1.05;0.43;;;16.40;99.90;;;;;;5071464;28;20448;-62
2021/08/29 05:59:52;;;;;;;2.67;0.30;;;16.50;99.90;;;;;;5070556;28;20032;-62
2021/08/29 06:02:17;;;;;;;2.75;0.50;;;16.40;99.90;;;;;;5071572;28;20031;-62
2021/08/29 06:04:43;;;;;;;0.90;0.40;;;16.50;99.90;;;;;;5071710;28;20043;-62
2021/08/29 06:07:09;;;;;;;4.32;0.40;;;16.50;99.90;;;;;;5070066;28;20025;-62
2021/08/29 06:09:35;;;;;;;1.58;0.50;;;16.40;99.90;;;;;;5070579;28;20385;-62
2021/08/29 06:12:01;;;;;;;0.77;0.57;;;16.40;99.90;;;;;;5070293;28;20039;-62
2021/08/29 06:14:27;;;;;;;0.70;0.50;;;16.40;99.90;;;;;;5071446;28;20024;-62
2021/08/29 06:16:53;;;;;;;1.15;0.40;;;16.50;99.90;;;;;;5071896;28;20020;-62
2021/08/29 06:19:18;;;;;;;1.38;0.90;;;16.40;99.90;;;;;;5070738;28;20086;-62
2021/08/29 06:21:44;;;;;;;0.88;0.60;;;16.50;99.90;;;;;;5069754;28;20052;-61
2021/08/29 06:24:09;;;;;;;0.82;0.60;;;16.50;99.90;;;;;;5070822;28;20040;-65
2021/08/29 06:26:35;;;;;;;1.55;0.60;;;16.60;99.90;;;;;;5071094;28;20398;-62
2021/08/29 06:29:01;;;;;;;0.57;0.40;;;16.50;99.90;;;;;;5070629;28;20035;-61
2021/08/29 06:31:26;;;;;;;0.52;0.52;;;16.50;99.90;;;;;;5070907;28;20115;-62
2021/08/29 06:33:52;;;;;;;0.63;0.50;;;16.60;99.90;;;;;;5070123;28;20035;-62
2021/08/29 06:36:18;;;;;;;0.70;0.50;;;16.60;99.90;;;;;;5070604;28;20028;-61
2021/08/29 06:38:43;;;;;;;1.48;0.70;;;16.60;99.90;;;;;;5070158;28;20374;-61
2021/08/29 06:41:09;;;;;;;0.55;0.50;;;16.50;99.90;;;;;;5071733;28;20036;-60
2021/08/29 06:43:35;;;;;;;0.90;0.57;;;16.60;99.90;;;;;;5071298;28;20024;-62
2021/08/29 06:46:01;;;;;;;0.52;0.40;;;16.60;99.90;;;;;;5071367;28;20035;-62
2021/08/29 06:48:27;;;;;;;0.40;0.30;;;16.60;99.90;;;;;;5069631;28;20020;-62
2021/08/29 06:50:52;;;;;;;1.73;0.28;;;16.60;99.90;;;;;;5069603;28;20024;-62
2021/08/29 06:53:18;;;;;;;3.08;0.52;;;16.50;99.90;;;;;;5070422;28;20090;-62
2021/08/29 06:55:43;;;;;;;2.35;0.50;;;16.60;99.90;;;;;;5070935;28;20024;-62
2021/08/29 06:58:09;;;;;;;0.95;0.52;;;16.60;99.90;;;;;;5071049;28;20108;-62
2021/08/29 07:00:35;;;;;;;0.50;0.50;;;16.70;99.90;;;;;;5070715;28;20056;-62
2021/08/29 07:03:00;;;;;;;2.47;0.50;;;16.80;99.90;;;;;;5070939;28;20466;-62
2021/08/29 07:05:26;;;;;;;0.30;0.20;;;16.80;99.90;;;;;;5069426;28;20064;-62
2021/08/29 07:07:52;;;;;;;0.50;0.43;;;16.90;99.90;;;;;;5071120;28;20028;-62
2021/08/29 07:10:18;;;;;;;0.55;0.40;;;16.80;99.90;;;;;;5069150;28;20020;-61
2021/08/29 07:12:44;;;;;;;0.50;0.32;;;16.70;99.90;;;;;;5071160;28;20367;-62
2021/08/29 07:15:10;;;;;;;0.70;0.50;;;16.70;99.90;;;;;;5070943;28;20021;-62
2021/08/29 07:17:35;;;;;;;0.80;0.70;;;16.60;99.90;;;;;;5069216;28;20112;-62
2021/08/29 07:20:02;;;;;;;0.82;0.75;;;16.70;99.90;;;;;;5069476;28;20032;-62
2021/08/29 07:22:27;;;;;;;0.55;0.20;;;16.70;99.90;;;;;;5070539;28;20109;-62
2021/08/29 07:24:53;;;;;;;1.60;0.55;;;16.80;99.90;;;;;;5070588;28;20028;-63
2021/08/29 07:27:18;;;;;;;0.55;0.40;;;16.80;99.90;;;;;;5068919;28;20120;-63
2021/08/29 07:29:44;;;;;;;3.90;0.40;;;16.80;99.90;;;;;;5070537;28;20028;-63
2021/08/29 07:32:10;;;;;;;1.33;0.40;;;16.90;99.90;;;;;;5070831;28;20474;-62
2021/08/29 07:34:37;;;;;;;5.68;1.13;;;16.90;99.90;;;;;;5068745;28;20027;-62
2021/08/29 07:37:03;;;;;;;1.02;0.30;;;16.90;99.90;;;;;;5069225;28;20032;-61
2021/08/29 07:39:28;;;;;;;1.08;0.60;;;16.90;99.90;;;;;;5068627;28;20544;-62
2021/08/29 07:41:55;;;;;;;1.55;0.35;;;16.90;99.90;;;;;;5069619;28;20123;-62
2021/08/29 07:44:21;;;;;;;1.50;0.57;;;17.00;99.90;;;;;;5070223;28;20037;-62
2021/08/29 07:46:46;;;;;;;1.02;0.50;;;16.90;99.90;;;;;;5071087;28;20089;-62
2021/08/29 07:49:12;;;;;;;0.45;0.32;;;16.90;99.90;;;;;;5069277;28;20024;-62
2021/08/29 07:51:37;;;;;;;0.85;0.43;;;16.90;99.90;;;;;;5070048;28;20047;-62
2021/08/29 07:54:03;;;;;;;1.75;0.63;;;17.10;99.90;;;;;;5069077;28;20111;-62
2021/08/29 07:56:29;;;;;;;2.40;0.60;;;17.10;99.90;;;;;;5069993;28;20032;-62
2021/08/29 07:58:54;;;;;;;1.55;0.70;;;17.10;99.90;;;;;;5069048;28;20021;-62
2021/08/29 08:01:20;;;;;;;2.40;0.60;;;17.00;99.90;;;;;;5070163;28;20055;-62
2021/08/29 08:03:46;;;;;;;1.80;0.63;;;17.10;99.90;;;;;;5070093;28;20025;-62
2021/08/29 08:06:11;;;;;;;2.08;0.63;;;17.10;99.90;;;;;;5071518;28;20303;-64
2021/08/29 08:08:37;;;;;;;2.38;0.90;;;17.30;99.90;;;;;;5072145;28;20426;-68
2021/08/29 08:11:03;;;;;;;1.10;0.73;;;17.30;99.90;;;;;;5091435;28;20097;-62
2021/08/29 08:13:30;;;;;;;3.65;0.60;;;17.40;99.90;;;;;;5087687;28;20383;-63
2021/08/29 08:15:56;;;;;;;3.90;0.80;;;17.40;99.90;;;;;;5093279;28;20020;-65
2021/08/29 08:18:21;;;;;;;0.90;0.63;;;17.30;99.90;;;;;;5093275;28;20058;-63
2021/08/29 08:20:47;;;;;;;3.03;0.85;;;17.40;99.90;;;;;;5093554;28;20028;-63
2021/08/29 08:23:13;;;;;;;1.27;0.65;;;17.50;99.90;;;;;;5091219;28;20074;-63
2021/08/29 08:25:39;;;;;;;1.27;0.60;;;17.40;99.90;;;;;;5091236;28;20105;-64
2021/08/29 08:28:04;;;;;;;1.02;0.60;;;17.50;99.90;;;;;;5094112;28;20027;-62
2021/08/29 08:30:30;;;;;;;1.05;0.60;;;17.40;99.90;;;;;;5094323;28;20421;-64
2021/08/29 08:32:56;;;;;;;1.88;0.80;;;17.40;99.90;;;;;;5093526;28;20402;-63
2021/08/29 08:35:22;;;;;;;3.40;0.70;;;17.40;99.90;;;;;;5091876;28;20039;-67
2021/08/29 08:37:47;;;;;;;1.48;0.55;;;17.40;99.90;;;;;;5071447;28;20447;-65
2021/08/29 08:40:13;;;;;;;1.05;0.73;;;17.40;99.90;;;;;;5072524;28;20052;-63
2021/08/29 08:42:39;;;;;;;0.93;0.60;;;17.40;99.90;;;;;;5073075;28;20141;-62
2021/08/29 08:45:07;;;;;;;1.15;0.80;;;17.40;99.90;;;;;;5073726;28;20103;-63
2021/08/29 08:47:34;;;;;;;2.08;0.88;;;17.40;99.90;;;;;;5072800;28;20029;-64
2021/08/29 08:50:01;;;;;;;1.35;0.70;;;17.40;99.90;;;;;;5071941;28;20059;-63
2021/08/29 08:52:29;;;;;;;1.95;1.08;;;17.40;99.90;;;;;;5072692;28;20105;-63
2021/08/29 08:55:00;;;;;;;2.22;0.85;;;17.40;99.90;;;;;;5073653;28;20025;-63
2021/08/29 08:57:26;;;;;;;5.05;1.15;;;17.20;99.90;;;;;;5071504;28;20024;-63
2021/08/29 08:59:52;;;;;;;0.90;0.90;;;17.20;99.90;;;;;;5072238;28;20489;-63
2021/08/29 09:02:21;;;;;;;1.73;0.60;;;17.20;99.90;;;;;;5071118;28;20033;-74
2021/08/29 09:04:47;;;;;;;0.93;0.70;;;17.30;99.90;;;;;;5073129;28;20067;-63
2021/08/29 09:07:13;;;;;;;3.03;0.82;;;17.30;99.90;;;;;;5088174;28;20020;-63
2021/08/29 09:09:39;;;;;;;1.83;0.90;;;17.30;99.90;;;;;;5092572;28;20413;-63
2021/08/29 09:12:05;;;;;;;0.98;0.88;;;17.30;99.90;;;;;;5091897;28;20028;-63
2021/08/29 09:14:41;;;;;;;2.00;1.15;;;17.30;99.90;;;;;;5090832;28;20036;-63
2021/08/29 09:17:23;;;;;;;1.92;1.15;;;17.30;99.90;;;;;;5092859;28;20024;-63
2021/08/29 09:19:49;;;;;;;2.17;1.10;;;17.30;99.90;;;;;;5091554;28;20044;-63
2021/08/29 09:22:23;;;;;;;1.48;1.13;;;17.20;99.90;;;;;;5090918;28;20412;-64
2021/08/29 09:24:50;;;;;;;2.47;1.48;;;17.30;99.90;;;;;;5091770;28;20039;-64
2021/08/29 09:27:16;;;;;;;2.42;1.30;;;17.30;99.90;;;;;;5083199;28;20017;-64
2021/08/29 09:29:43;;;;;;;0.80;0.70;;;17.30;99.90;;;;;;5072268;28;20035;-64
2021/08/29 09:32:09;;;;;;;5.07;0.80;;;17.40;99.90;;;;;;5071337;28;20342;-69
2021/08/29 09:34:34;;;;;;;4.30;1.08;;;17.50;99.90;;;;;;5070578;28;20100;-68
2021/08/29 09:37:01;;;;;;;3.40;1.48;;;17.80;99.90;;;;;;5070934;28;20139;-63
2021/08/29 09:39:27;;;;;;;1.92;1.73;;;17.70;99.90;;;;;;5070678;28;20052;-62
2021/08/29 09:42:02;;;;;;;2.47;1.83;;;17.60;99.90;;;;;;5070993;28;20462;-71
2021/08/29 09:44:33;;;;;;;1.10;0.95;;;17.70;99.90;;;;;;5070078;28;20040;-62
2021/08/29 09:47:02;;;;;;;1.52;1.10;;;17.60;99.90;;;;;;5071185;28;20036;-63
2021/08/29 09:49:30;;;;;;;1.98;1.08;;;17.60;99.90;;;;;;5071512;28;20401;-63
2021/08/29 09:51:59;;;;;;;1.35;1.15;;;17.60;99.90;;;;;;5070530;28;20045;-62
2021/08/29 09:54:33;;;;;;;4.43;1.65;;;17.50;99.90;;;;;;5069644;28;20024;-62
2021/08/29 09:57:04;;;;;;;2.25;1.10;;;17.60;99.90;;;;;;5072110;28;20486;-62
2021/08/29 09:59:47;;;;;;;2.15;1.95;;;17.80;99.90;;;;;;5071131;28;20477;-53
2021/08/29 10:02:18;;;;;;;1.85;1.27;;;17.80;99.90;;;;;;5071454;28;20032;-53
2021/08/29 10:04:44;;;;;;;2.72;1.05;;;18.20;99.90;;;;;;5070833;28;20124;-53
2021/08/29 10:07:18;;;;;;;3.03;1.05;;;18.40;99.90;;;;;;5069839;28;20461;-65
2021/08/29 10:09:46;;;;;;;4.05;1.38;;;18.60;99.90;;;;;;5069414;28;20462;-54
2021/08/29 10:12:13;;;;;;;17.60;3.35;;;18.70;99.90;;;;;;5071437;28;20470;-56
2021/08/29 10:14:40;;;;;;;4.57;1.80;;;19.10;99.90;;;;;;5069808;28;20086;-56
2021/08/29 10:17:08;;;;;;;3.65;1.85;;;19.30;99.90;;;;;;5086730;28;20101;-64
2021/08/29 10:19:36;;;;;;;6.40;2.30;;;19.40;99.90;;;;;;5087011;28;20040;-54
2021/08/29 10:22:03;;;;;;;4.32;1.30;;;19.60;99.90;;;;;;5090344;28;20052;-57
2021/08/29 10:24:31;;;;;;;4.25;1.15;;;19.70;99.90;;;;;;5087686;28;20436;-59
2021/08/29 10:27:04;;;;;;;16.20;1.75;;;19.70;99.90;;;;;;5087241;28;20062;-57
2021/08/29 10:29:38;;;;;;;5.60;1.67;;;19.50;99.90;;;;;;5086774;28;20024;-57
2021/08/29 10:32:18;;;;;;;4.72;3.63;;;19.60;99.90;;;;;;5089625;28;20032;-56
2021/08/29 10:34:44;;;;;;;2.40;1.50;;;19.50;99.90;;;;;;5087165;28;20198;-57
2021/08/29 10:37:10;;;;;;;5.53;1.45;;;19.40;99.90;;;;;;5089788;28;20023;-58
2021/08/29 10:39:36;;;;;;;5.28;2.13;;;19.60;99.90;;;;;;5088982;28;20356;-57
2021/08/29 10:42:03;;;;;;;11.30;2.05;;;19.50;99.90;;;;;;5087890;28;20046;-58
2021/08/29 10:44:29;;;;;;;3.42;1.70;;;19.50;99.90;;;;;;5087469;28;20054;-57
2021/08/29 10:46:56;;;;;;;2.08;1.52;;;19.40;99.90;;;;;;5089404;28;20512;-58
2021/08/29 10:49:23;;;;;;;3.75;1.75;;;19.40;99.90;;;;;;5088026;28;20076;-63
2021/08/29 10:51:51;;;;;;;4.85;1.65;;;19.30;99.90;;;;;;5088024;28;20487;-58
2021/08/29 10:54:17;;;;;;;6.55;1.80;;;19.30;99.90;;;;;;5087845;28;20040;-57
2021/08/29 10:56:43;;;;;;;5.20;1.10;;;19.20;99.90;;;;;;5088904;28;20020;-55
2021/08/29 10:59:09;;;;;;;1.73;1.35;;;19.10;99.90;;;;;;5088103;28;20119;-65
2021/08/29 11:01:45;;;;;;;3.03;1.25;;;19.00;99.90;;;;;;5089059;28;20031;-65
2021/08/29 11:04:26;;;;;;;5.75;1.80;;;18.80;99.90;;;;;;5087875;28;20062;-66
2021/08/29 11:07:03;;;;;;;1.85;1.13;;;18.90;99.90;;;;;;5088300;28;20140;-65
2021/08/29 11:09:35;;;;;;;1.50;1.00;;;18.80;99.90;;;;;;5088586;28;20039;-66
2021/08/29 11:12:19;;;;;;;2.72;1.60;;;18.90;99.90;;;;;;5086890;28;20032;-67
2021/08/29 11:14:51;;;;;;;1.98;1.73;;;18.70;99.90;;;;;;5085331;28;20083;-67
2021/08/29 11:17:22;;;;;;;2.28;1.50;;;18.60;99.90;;;;;;5083797;28;20465;-68
2021/08/29 11:19:53;;;;;;;1.50;1.30;;;18.70;99.90;;;;;;5084200;28;20028;-66
2021/08/29 11:22:23;;;;;;;;;;;18.50;99.90;;;;;;5088270;28;20044;-66
2021/08/29 11:25:11;;;;;;;2.95;1.10;;;18.50;99.90;;;;;;5084255;28;20038;-66
2021/08/29 11:27:39;;;;;;;3.42;1.65;;;18.30;99.90;;;;;;5085138;28;20028;-67
2021/08/29 11:30:05;;;;;;;2.03;1.00;;;18.20;99.90;;;;;;5082882;28;20024;-66
2021/08/29 11:32:45;;;;;;;1.80;1.38;;;18.20;99.90;;;;;;5085846;28;20533;-65
2021/08/29 11:35:25;;;;;;;2.47;0.90;;;18.10;99.90;;;;;;5085830;28;20370;-67
2021/08/29 11:38:32;;;;;;;1.85;1.40;;;18.10;99.90;;;;;;5087249;28;20465;-64
2021/08/29 11:41:12;;;;;;;2.35;1.95;;;18.00;99.90;;;;;;5089454;28;20043;-65
2021/08/29 11:43:49;;;;;;;3.88;2.72;;;17.90;99.90;;;;;;5091707;28;20407;-64
2021/08/29 11:46:18;;;;;;;4.32;2.83;;;17.90;99.90;;;;;;5089768;28;20051;-64
2021/08/29 11:48:53;;;;;;;4.30;2.60;;;17.50;99.90;;;;;;5092316;28;20016;-65
2021/08/29 11:51:33;;;;;;;4.30;2.78;;;17.40;99.90;;;;;;5090531;28;20067;-68
2021/08/29 11:54:01;;;;;;;6.73;3.30;;;17.30;99.90;;;;;;5093242;28;20047;-63
2021/08/29 11:56:30;;;;;;;5.22;3.50;;;17.30;99.90;;;;;;5088798;28;20568;-66
2021/08/29 11:58:58;;;;;;;4.90;4.20;;;17.30;99.90;;;;;;5091822;28;20530;-66
2021/08/29 12:01:24;;;;;;;4.53;3.65;;;17.50;99.90;;;;;;5091604;28;20111;-65
2021/08/29 12:03:55;;;;;;;8.43;3.47;;;17.50;99.90;;;;;;5089947;28;20473;-65
2021/08/29 12:06:44;;;;;;;4.75;3.45;;;17.70;99.90;;;;;;5091425;28;20391;-67
2021/08/29 12:09:34;;;;;;;5.03;2.80;;;17.80;99.90;;;;;;5089696;28;20145;-67
2021/08/29 12:12:00;;;;;;;3.15;2.42;;;18.10;99.90;;;;;;5091517;28;20071;-64
2021/08/29 12:14:28;;;;;;;2.20;2.00;;;18.20;99.90;;;;;;5087454;28;20127;-65
2021/08/29 12:16:56;;;;;;;5.03;2.00;;;18.30;99.90;;;;;;5089332;28;20492;-63
2021/08/29 12:19:29;;;;;;;2.58;1.85;;;18.40;99.90;;;;;;5087038;28;20035;-68
2021/08/29 12:21:56;;;;;;;2.65;1.80;;;18.40;99.90;;;;;;5089366;28;20163;-64
2021/08/29 12:24:30;;;;;;;2.53;1.63;;;18.50;99.90;;;;;;5091540;28;20024;-64
2021/08/29 12:27:08;;;;;;;4.40;1.45;;;18.70;99.90;;;;;;5090436;28;20154;-64
2021/08/29 12:29:46;;;;;;;2.25;1.45;;;18.60;99.90;;;;;;5087573;28;20032;-66
2021/08/29 12:32:17;;;;;;;5.55;1.42;;;18.60;99.90;;;;;;5091891;28;20052;-65
2021/08/29 12:34:51;;;;;;;2.58;1.35;;;18.80;99.90;;;;;;5088345;28;20031;-65
2021/08/29 12:37:17;;;;;;;1.67;1.25;;;18.80;99.90;;;;;;5090576;28;20412;-66
2021/08/29 12:40:00;;;;;;;2.30;0.75;;;18.80;99.90;;;;;;5091029;28;20107;-65
2021/08/29 12:42:27;;;;;;;2.08;1.60;;;18.90;99.90;;;;;;5090634;28;20028;-68
2021/08/29 12:44:59;;;;;;;1.35;0.98;;;18.90;99.90;;;;;;5089941;28;20024;-64
2021/08/29 12:47:25;;;;;;;;;;;18.90;99.90;;;;;;5092824;28;20107;-67
2021/08/29 12:49:52;;;;;;;3.92;1.25;;;19.10;99.90;;;;;;5090713;28;19915;-66
2021/08/29 12:52:25;;;;;;;1.13;0.77;;;19.20;99.90;;;;;;5091316;28;20044;-66